Aviation Digital Data Service (ADDS)

Output produced by METARs form (0904 UTC 20 October 2017)
found at http://www.aviationweather.gov/adds/metars/
 
METAR text: KFKL 200856Z AUTO 00000KT 10SM CLR 09/08 A3022 RMK AO2 SLP233 T00940083 53009
Conditions at: KFKL (FRANKLIN , PA, US) observed 0856 UTC 20 October 2017
Temperature: 9.4°C (49°F)
Dewpoint: 8.3°C (47°F) [RH = 93%]
Pressure (altimeter): 30.22 inches Hg (1023.5 mb)
[Sea-level pressure: 1023.3 mb]
Winds: calm
Visibility: 10 or more miles (16+ km)
Ceiling: at least 12,000 feet AGL
Clouds: sky clear below 12,000 feet AGL
Weather: automated observation with no human augmentation;
there may or may not be significant weather present at this time

METAR text: KFKL 200756Z AUTO 00000KT 10SM CLR 10/09 A3020 RMK AO2 SLP228 T01000089
Conditions at: KFKL (FRANKLIN , PA, US) observed 0756 UTC 20 October 2017
Temperature: 10.0°C (50°F)
Dewpoint: 8.9°C (48°F) [RH = 93%]
Pressure (altimeter): 30.20 inches Hg (1022.8 mb)
[Sea-level pressure: 1022.8 mb]
Winds: calm
Visibility: 10 or more miles (16+ km)
Ceiling: at least 12,000 feet AGL
Clouds: sky clear below 12,000 feet AGL
Weather: automated observation with no human augmentation;
there may or may not be significant weather present at this time

METAR text: KFKL 200656Z AUTO 27005KT 10SM CLR 10/08 A3020 RMK AO2 SLP227 T01000083
Conditions at: KFKL (FRANKLIN , PA, US) observed 0656 UTC 20 October 2017
Temperature: 10.0°C (50°F)
Dewpoint: 8.3°C (47°F) [RH = 89%]
Pressure (altimeter): 30.20 inches Hg (1022.8 mb)
[Sea-level pressure: 1022.7 mb]
Winds: from the W (270 degrees) at 6 MPH (5 knots; 2.6 m/s)
Visibility: 10 or more miles (16+ km)
Ceiling: at least 12,000 feet AGL
Clouds: sky clear below 12,000 feet AGL
Weather: automated observation with no human augmentation;
there may or may not be significant weather present at this time

METAR text: KFKL 200556Z AUTO 25005KT 10SM CLR 11/09 A3019 RMK AO2 SLP223 T01110089 10167 20106 51005
Conditions at: KFKL (FRANKLIN , PA, US) observed 0556 UTC 20 October 2017
Temperature: 11.1°C (52°F)
Dewpoint: 8.9°C (48°F) [RH = 86%]
Pressure (altimeter): 30.19 inches Hg (1022.4 mb)
[Sea-level pressure: 1022.3 mb]
Winds: from the WSW (250 degrees) at 6 MPH (5 knots; 2.6 m/s)
Visibility: 10 or more miles (16+ km)
Ceiling: at least 12,000 feet AGL
Clouds: sky clear below 12,000 feet AGL
Weather: automated observation with no human augmentation;
there may or may not be significant weather present at this time

METAR text: KFKL 200456Z AUTO 26005KT 10SM CLR 12/09 A3019 RMK AO2 SLP221 T01220089 402000050
Conditions at: KFKL (FRANKLIN , PA, US) observed 0456 UTC 20 October 2017
Temperature: 12.2°C (54°F)
Dewpoint: 8.9°C (48°F) [RH = 80%]
Pressure (altimeter): 30.19 inches Hg (1022.4 mb)
[Sea-level pressure: 1022.1 mb]
Winds: from the W (260 degrees) at 6 MPH (5 knots; 2.6 m/s)
Visibility: 10 or more miles (16+ km)
Ceiling: at least 12,000 feet AGL
Clouds: sky clear below 12,000 feet AGL
Weather: automated observation with no human augmentation;
there may or may not be significant weather present at this time

METAR text: KFKL 200356Z AUTO 25004KT 10SM FEW046 13/09 A3018 RMK AO2 SLP219 T01330089
Conditions at: KFKL (FRANKLIN , PA, US) observed 0356 UTC 20 October 2017
Temperature: 13.3°C (56°F)
Dewpoint: 8.9°C (48°F) [RH = 75%]
Pressure (altimeter): 30.18 inches Hg (1022.1 mb)
[Sea-level pressure: 1021.9 mb]
Winds: from the WSW (250 degrees) at 5 MPH (4 knots; 2.1 m/s)
Visibility: 10 or more miles (16+ km)
Ceiling: at least 12,000 feet AGL
Clouds: few clouds at 4600 feet AGL
Weather: automated observation with no human augmentation;
there may or may not be significant weather present at this time

METAR text: KFKL 200256Z AUTO 25003KT 10SM BKN050 14/09 A3018 RMK AO2 SLP217 T01440089 53004
Conditions at: KFKL (FRANKLIN , PA, US) observed 0256 UTC 20 October 2017
Temperature: 14.4°C (58°F)
Dewpoint: 8.9°C (48°F) [RH = 70%]
Pressure (altimeter): 30.18 inches Hg (1022.1 mb)
[Sea-level pressure: 1021.7 mb]
Winds: from the WSW (250 degrees) at 3 MPH (3 knots; 1.6 m/s)
Visibility: 10 or more miles (16+ km)
Ceiling: 5000 feet AGL
Clouds: broken clouds at 5000 feet AGL
Weather: automated observation with no human augmentation;
there may or may not be significant weather present at this time

METAR text: KFKL 200156Z AUTO 30004KT 10SM BKN050 15/09 A3018 RMK AO2 SLP221 T01500089
Conditions at: KFKL (FRANKLIN , PA, US) observed 0156 UTC 20 October 2017
Temperature: 15.0°C (59°F)
Dewpoint: 8.9°C (48°F) [RH = 67%]
Pressure (altimeter): 30.18 inches Hg (1022.1 mb)
[Sea-level pressure: 1022.1 mb]
Winds: from the WNW (300 degrees) at 5 MPH (4 knots; 2.1 m/s)
Visibility: 10 or more miles (16+ km)
Ceiling: 5000 feet AGL
Clouds: broken clouds at 5000 feet AGL
Weather: automated observation with no human augmentation;
there may or may not be significant weather present at this time

METAR text: KFKL 200056Z AUTO 24006KT 10SM CLR 16/09 A3015 RMK AO2 SLP214 T01560089
Conditions at: KFKL (FRANKLIN , PA, US) observed 0056 UTC 20 October 2017
Temperature: 15.6°C (60°F)
Dewpoint: 8.9°C (48°F) [RH = 64%]
Pressure (altimeter): 30.15 inches Hg (1021.1 mb)
[Sea-level pressure: 1021.4 mb]
Winds: from the WSW (240 degrees) at 7 MPH (6 knots; 3.1 m/s)
Visibility: 10 or more miles (16+ km)
Ceiling: at least 12,000 feet AGL
Clouds: sky clear below 12,000 feet AGL
Weather: automated observation with no human augmentation;
there may or may not be significant weather present at this time

METAR text: KFKL 192356Z AUTO 23006KT 10SM BKN055 17/09 A3016 RMK AO2 SLP218 T01670089 10200 20167 53012
Conditions at: KFKL (FRANKLIN , PA, US) observed 2356 UTC 19 October 2017
Temperature: 16.7°C (62°F)
Dewpoint: 8.9°C (48°F) [RH = 60%]
Pressure (altimeter): 30.16 inches Hg (1021.4 mb)
[Sea-level pressure: 1021.8 mb]
Winds: from the SW (230 degrees) at 7 MPH (6 knots; 3.1 m/s)
Visibility: 10 or more miles (16+ km)
Ceiling: 5500 feet AGL
Clouds: broken clouds at 5500 feet AGL
Weather: automated observation with no human augmentation;
there may or may not be significant weather present at this time

METAR text: KFKL 192256Z AUTO 24006KT 10SM FEW050 18/09 A3014 RMK AO2 SLP209 T01780089
Conditions at: KFKL (FRANKLIN , PA, US) observed 2256 UTC 19 October 2017
Temperature: 17.8°C (64°F)
Dewpoint: 8.9°C (48°F) [RH = 56%]
Pressure (altimeter): 30.14 inches Hg (1020.7 mb)
[Sea-level pressure: 1020.9 mb]
Winds: from the WSW (240 degrees) at 7 MPH (6 knots; 3.1 m/s)
Visibility: 10 or more miles (16+ km)
Ceiling: at least 12,000 feet AGL
Clouds: few clouds at 5000 feet AGL
Weather: automated observation with no human augmentation;
there may or may not be significant weather present at this time

METAR text: KFKL 192156Z AUTO 24005KT 10SM CLR 18/09 A3013 RMK AO2 SLP203 T01830089 TSNO
Conditions at: KFKL (FRANKLIN , PA, US) observed 2156 UTC 19 October 2017
Temperature: 18.3°C (65°F)
Dewpoint: 8.9°C (48°F) [RH = 54%]
Pressure (altimeter): 30.13 inches Hg (1020.4 mb)
[Sea-level pressure: 1020.3 mb]
Winds: from the WSW (240 degrees) at 6 MPH (5 knots; 2.6 m/s)
Visibility: 10 or more miles (16+ km)
Ceiling: at least 12,000 feet AGL
Clouds: sky clear below 12,000 feet AGL
Weather: automated observation with no human augmentation;
there may or may not be significant weather present at this time

METAR text: KFKL 192056Z AUTO 24009KT 10SM CLR 19/08 A3012 RMK AO2 SLP202 T01890083 56010
Conditions at: KFKL (FRANKLIN , PA, US) observed 2056 UTC 19 October 2017
Temperature: 18.9°C (66°F)
Dewpoint: 8.3°C (47°F) [RH = 50%]
Pressure (altimeter): 30.12 inches Hg (1020.1 mb)
[Sea-level pressure: 1020.2 mb]
Winds: from the WSW (240 degrees) at 10 MPH (9 knots; 4.7 m/s)
Visibility: 10 or more miles (16+ km)
Ceiling: at least 12,000 feet AGL
Clouds: sky clear below 12,000 feet AGL
Weather: automated observation with no human augmentation;
there may or may not be significant weather present at this time

METAR text: KFKL 191956Z AUTO 23008G19KT 10SM CLR 20/08 A3013 RMK AO2 SLP202 T02000083
Conditions at: KFKL (FRANKLIN , PA, US) observed 1956 UTC 19 October 2017
Temperature: 20.0°C (68°F)
Dewpoint: 8.3°C (47°F) [RH = 47%]
Pressure (altimeter): 30.13 inches Hg (1020.4 mb)
[Sea-level pressure: 1020.2 mb]
Winds: from the SW (230 degrees) at 9 MPH (8 knots; 4.2 m/s)
gusting to 22 MPH (19 knots; 9.9 m/s)
Visibility: 10 or more miles (16+ km)
Ceiling: at least 12,000 feet AGL
Clouds: sky clear below 12,000 feet AGL
Weather: automated observation with no human augmentation;
there may or may not be significant weather present at this time

METAR text: KFKL 191856Z AUTO 23010G17KT 170V260 10SM CLR 19/09 A3014 RMK AO2 SLP206 T01890089
Conditions at: KFKL (FRANKLIN , PA, US) observed 1856 UTC 19 October 2017
Temperature: 18.9°C (66°F)
Dewpoint: 8.9°C (48°F) [RH = 52%]
Pressure (altimeter): 30.14 inches Hg (1020.7 mb)
[Sea-level pressure: 1020.6 mb]
Winds: from the SW (230 degrees) at 12 MPH (10 knots; 5.2 m/s)
gusting to 20 MPH (17 knots; 8.8 m/s)
Visibility: 10 or more miles (16+ km)
Ceiling: at least 12,000 feet AGL
Clouds: sky clear below 12,000 feet AGL
Weather: automated observation with no human augmentation;
there may or may not be significant weather present at this time

METAR text: KFKL 191756Z AUTO 24010G19KT 10SM CLR 19/08 A3016 RMK AO2 SLP212 T01890083 10194 20050 58012
Conditions at: KFKL (FRANKLIN , PA, US) observed 1756 UTC 19 October 2017
Temperature: 18.9°C (66°F)
Dewpoint: 8.3°C (47°F) [RH = 50%]
Pressure (altimeter): 30.16 inches Hg (1021.4 mb)
[Sea-level pressure: 1021.2 mb]
Winds: from the WSW (240 degrees) at 12 MPH (10 knots; 5.2 m/s)
gusting to 22 MPH (19 knots; 9.9 m/s)
Visibility: 10 or more miles (16+ km)
Ceiling: at least 12,000 feet AGL
Clouds: sky clear below 12,000 feet AGL
Weather: automated observation with no human augmentation;
there may or may not be significant weather present at this time

METAR text: KFKL 191656Z AUTO 23013G17KT 10SM CLR 18/09 A3017 RMK AO2 SLP218 T01830089
Conditions at: KFKL (FRANKLIN , PA, US) observed 1656 UTC 19 October 2017
Temperature: 18.3°C (65°F)
Dewpoint: 8.9°C (48°F) [RH = 54%]
Pressure (altimeter): 30.17 inches Hg (1021.8 mb)
[Sea-level pressure: 1021.8 mb]
Winds: from the SW (230 degrees) at 15 MPH (13 knots; 6.8 m/s)
gusting to 20 MPH (17 knots; 8.8 m/s)
Visibility: 10 or more miles (16+ km)
Ceiling: at least 12,000 feet AGL
Clouds: sky clear below 12,000 feet AGL
Weather: automated observation with no human augmentation;
there may or may not be significant weather present at this time

METAR text: KFKL 191556Z AUTO 24012G16KT 10SM CLR 17/08 A3018 RMK AO2 SLP223 T01720083
Conditions at: KFKL (FRANKLIN , PA, US) observed 1556 UTC 19 October 2017
Temperature: 17.2°C (63°F)
Dewpoint: 8.3°C (47°F) [RH = 56%]
Pressure (altimeter): 30.18 inches Hg (1022.1 mb)
[Sea-level pressure: 1022.3 mb]
Winds: from the WSW (240 degrees) at 14 MPH (12 knots; 6.2 m/s)
gusting to 18 MPH (16 knots; 8.3 m/s)
Visibility: 10 or more miles (16+ km)
Ceiling: at least 12,000 feet AGL
Clouds: sky clear below 12,000 feet AGL
Weather: automated observation with no human augmentation;
there may or may not be significant weather present at this time

METAR text: KFKL 191456Z AUTO 22010KT 10SM CLR 15/07 A3019 RMK AO2 SLP227 T01500072 51004
Conditions at: KFKL (FRANKLIN , PA, US) observed 1456 UTC 19 October 2017
Temperature: 15.0°C (59°F)
Dewpoint: 7.2°C (45°F) [RH = 60%]
Pressure (altimeter): 30.19 inches Hg (1022.4 mb)
[Sea-level pressure: 1022.7 mb]
Winds: from the SW (220 degrees) at 12 MPH (10 knots; 5.2 m/s)
Visibility: 10 or more miles (16+ km)
Ceiling: at least 12,000 feet AGL
Clouds: sky clear below 12,000 feet AGL
Weather: automated observation with no human augmentation;
there may or may not be significant weather present at this time

METAR text: KFKL 191356Z AUTO 22008KT 10SM CLR 12/06 A3019 RMK AO2 SLP227 T01220061
Conditions at: KFKL (FRANKLIN , PA, US) observed 1356 UTC 19 October 2017
Temperature: 12.2°C (54°F)
Dewpoint: 6.1°C (43°F) [RH = 66%]
Pressure (altimeter): 30.19 inches Hg (1022.4 mb)
[Sea-level pressure: 1022.7 mb]
Winds: from the SW (220 degrees) at 9 MPH (8 knots; 4.2 m/s)
Visibility: 10 or more miles (16+ km)
Ceiling: at least 12,000 feet AGL
Clouds: sky clear below 12,000 feet AGL
Weather: automated observation with no human augmentation;
there may or may not be significant weather present at this time

METAR text: KFKL 191256Z AUTO 21007KT 10SM CLR 09/06 A3019 RMK AO2 SLP228 T00890056
Conditions at: KFKL (FRANKLIN , PA, US) observed 1256 UTC 19 October 2017
Temperature: 8.9°C (48°F)
Dewpoint: 5.6°C (42°F) [RH = 80%]
Pressure (altimeter): 30.19 inches Hg (1022.4 mb)
[Sea-level pressure: 1022.8 mb]
Winds: from the SSW (210 degrees) at 8 MPH (7 knots; 3.6 m/s)
Visibility: 10 or more miles (16+ km)
Ceiling: at least 12,000 feet AGL
Clouds: sky clear below 12,000 feet AGL
Weather: automated observation with no human augmentation;
there may or may not be significant weather present at this time

METAR text: KFKL 191156Z AUTO 19006KT 10SM CLR 05/03 A3018 RMK AO2 SLP225 T00500033 10094 20050 58004
Conditions at: KFKL (FRANKLIN , PA, US) observed 1156 UTC 19 October 2017
Temperature: 5.0°C (41°F)
Dewpoint: 3.3°C (38°F) [RH = 89%]
Pressure (altimeter): 30.18 inches Hg (1022.1 mb)
[Sea-level pressure: 1022.5 mb]
Winds: from the S (190 degrees) at 7 MPH (6 knots; 3.1 m/s)
Visibility: 10 or more miles (16+ km)
Ceiling: at least 12,000 feet AGL
Clouds: sky clear below 12,000 feet AGL
Weather: automated observation with no human augmentation;
there may or may not be significant weather present at this time

METAR text: KFKL 191056Z AUTO 19007KT 10SM CLR 07/03 A3018 RMK AO2 SLP225 T00670033
Conditions at: KFKL (FRANKLIN , PA, US) observed 1056 UTC 19 October 2017
Temperature: 6.7°C (44°F)
Dewpoint: 3.3°C (38°F) [RH = 79%]
Pressure (altimeter): 30.18 inches Hg (1022.1 mb)
[Sea-level pressure: 1022.5 mb]
Winds: from the S (190 degrees) at 8 MPH (7 knots; 3.6 m/s)
Visibility: 10 or more miles (16+ km)
Ceiling: at least 12,000 feet AGL
Clouds: sky clear below 12,000 feet AGL
Weather: automated observation with no human augmentation;
there may or may not be significant weather present at this time

METAR text: KFKL 190956Z AUTO 20006KT 10SM CLR 07/03 A3019 RMK AO2 SLP228 T00670033
Conditions at: KFKL (FRANKLIN , PA, US) observed 0956 UTC 19 October 2017
Temperature: 6.7°C (44°F)
Dewpoint: 3.3°C (38°F) [RH = 79%]
Pressure (altimeter): 30.19 inches Hg (1022.4 mb)
[Sea-level pressure: 1022.8 mb]
Winds: from the SSW (200 degrees) at 7 MPH (6 knots; 3.1 m/s)
Visibility: 10 or more miles (16+ km)
Ceiling: at least 12,000 feet AGL
Clouds: sky clear below 12,000 feet AGL
Weather: automated observation with no human augmentation;
there may or may not be significant weather present at this time